sensor_id;sensor_type;location;lat;lon;timestamp;pressure;altitude;pressure_sealevel;temperature;humidity
28004;BME280;15330;51.234;6.754;2022-12-29T00:01:39;99888.34;;;10.37;100.00
28004;BME280;15330;51.234;6.754;2022-12-29T00:04:05;99899.66;;;10.54;100.00
28004;BME280;15330;51.234;6.754;2022-12-29T00:06:31;99891.72;;;10.75;99.37
28004;BME280;15330;51.234;6.754;2022-12-29T00:08:56;99894.56;;;10.88;99.00
28004;BME280;15330;51.234;6.754;2022-12-29T00:11:24;99876.44;;;10.90;98.54
28004;BME280;15330;51.234;6.754;2022-12-29T00:13:50;99876.44;;;10.90;99.03
28004;BME280;15330;51.234;6.754;2022-12-29T00:16:35;99874.81;;;10.89;98.89
28004;BME280;15330;51.234;6.754;2022-12-29T00:19:01;99863.84;;;10.70;99.98
28004;BME280;15330;51.234;6.754;2022-12-29T00:21:27;99875.22;;;10.57;100.00
28004;BME280;15330;51.234;6.754;2022-12-29T00:24:19;99861.94;;;10.49;100.00
28004;BME280;15330;51.234;6.754;2022-12-29T00:29:48;99858.47;;;10.48;100.00
28004;BME280;15330;51.234;6.754;2022-12-29T00:32:32;99845.28;;;10.47;100.00
28004;BME280;15330;51.234;6.754;2022-12-29T00:35:25;99848.50;;;10.42;100.00
28004;BME280;15330;51.234;6.754;2022-12-29T00:37:53;99826.63;;;10.39;100.00
28004;BME280;15330;51.234;6.754;2022-12-29T00:40:38;99863.97;;;10.61;99.86
28004;BME280;15330;51.234;6.754;2022-12-29T00:43:22;99850.03;;;10.66;99.54
28004;BME280;15330;51.234;6.754;2022-12-29T00:46:06;99849.38;;;10.64;99.91
28004;BME280;15330;51.234;6.754;2022-12-29T00:48:31;99833.34;;;10.64;99.52
28004;BME280;15330;51.234;6.754;2022-12-29T00:51:16;99852.41;;;10.76;98.85
28004;BME280;15330;51.234;6.754;2022-12-29T00:53:41;99826.75;;;10.81;98.38
28004;BME280;15330;51.234;6.754;2022-12-29T00:56:07;99829.94;;;10.91;97.70
28004;BME280;15330;51.234;6.754;2022-12-29T00:58:32;99848.63;;;11.06;96.79
28004;BME280;15330;51.234;6.754;2022-12-29T01:01:08;99832.09;;;11.17;95.73
28004;BME280;15330;51.234;6.754;2022-12-29T01:03:36;99813.81;;;11.21;95.32
28004;BME280;15330;51.234;6.754;2022-12-29T01:06:07;99813.03;;;11.27;95.14
28004;BME280;15330;51.234;6.754;2022-12-29T01:08:34;99829.72;;;11.29;94.82
28004;BME280;15330;51.234;6.754;2022-12-29T01:11:06;99814.72;;;11.34;94.20
28004;BME280;15330;51.234;6.754;2022-12-29T01:13:32;99812.88;;;11.35;94.32
28004;BME280;15330;51.234;6.754;2022-12-29T01:15:58;99820.78;;;11.43;93.27
28004;BME280;15330;51.234;6.754;2022-12-29T01:18:24;99821.28;;;11.53;92.26
28004;BME280;15330;51.234;6.754;2022-12-29T01:20:50;99821.50;;;11.52;92.24
28004;BME280;15330;51.234;6.754;2022-12-29T01:23:16;99831.97;;;11.53;91.98
28004;BME280;15330;51.234;6.754;2022-12-29T01:25:42;99822.31;;;11.52;92.23
28004;BME280;15330;51.234;6.754;2022-12-29T01:28:07;99824.34;;;11.50;92.28
28004;BME280;15330;51.234;6.754;2022-12-29T01:30:34;99816.88;;;11.46;92.60
28004;BME280;15330;51.234;6.754;2022-12-29T01:32:59;99843.09;;;11.50;92.05
28004;BME280;15330;51.234;6.754;2022-12-29T01:35:24;99825.00;;;11.52;91.57
28004;BME280;15330;51.234;6.754;2022-12-29T01:37:50;99826.22;;;11.50;91.66
28004;BME280;15330;51.234;6.754;2022-12-29T01:40:15;99827.59;;;11.46;91.85
28004;BME280;15330;51.234;6.754;2022-12-29T01:42:41;99807.97;;;11.38;91.94
28004;BME280;15330;51.234;6.754;2022-12-29T01:45:14;99821.41;;;11.45;91.47
28004;BME280;15330;51.234;6.754;2022-12-29T01:47:49;99817.47;;;11.41;91.31
28004;BME280;15330;51.234;6.754;2022-12-29T01:50:20;99816.31;;;11.50;90.55
28004;BME280;15330;51.234;6.754;2022-12-29T01:52:56;99802.03;;;11.43;90.55
28004;BME280;15330;51.234;6.754;2022-12-29T01:55:24;99802.84;;;11.44;90.32
28004;BME280;15330;51.234;6.754;2022-12-29T01:57:52;99791.72;;;11.40;90.57
28004;BME280;15330;51.234;6.754;2022-12-29T02:00:18;99782.22;;;11.37;90.55
28004;BME280;15330;51.234;6.754;2022-12-29T02:02:49;99789.28;;;11.45;89.78
28004;BME280;15330;51.234;6.754;2022-12-29T02:05:24;99792.59;;;11.47;89.09
28004;BME280;15330;51.234;6.754;2022-12-29T02:07:52;99784.56;;;11.47;88.69
28004;BME280;15330;51.234;6.754;2022-12-29T02:10:22;99788.25;;;11.46;88.82
28004;BME280;15330;51.234;6.754;2022-12-29T02:12:49;99802.28;;;11.48;88.28
28004;BME280;15330;51.234;6.754;2022-12-29T02:15:15;99801.28;;;11.49;87.88
28004;BME280;15330;51.234;6.754;2022-12-29T02:17:53;99784.13;;;11.44;88.19
28004;BME280;15330;51.234;6.754;2022-12-29T02:31:59;99770.19;;;11.55;86.38
28004;BME280;15330;51.234;6.754;2022-12-29T02:34:40;99780.06;;;11.54;86.05
28004;BME280;15330;51.234;6.754;2022-12-29T02:37:30;99776.16;;;11.50;86.16
28004;BME280;15330;51.234;6.754;2022-12-29T02:40:25;99757.53;;;11.42;86.68
28004;BME280;15330;51.234;6.754;2022-12-29T02:48:52;99756.59;;;11.56;85.54
28004;BME280;15330;51.234;6.754;2022-12-29T02:51:28;99748.13;;;11.53;85.97
28004;BME280;15330;51.234;6.754;2022-12-29T02:53:57;99740.16;;;11.59;85.55
28004;BME280;15330;51.234;6.754;2022-12-29T02:56:42;99733.50;;;11.49;86.36
28004;BME280;15330;51.234;6.754;2022-12-29T02:59:08;99730.66;;;11.57;86.16
28004;BME280;15330;51.234;6.754;2022-12-29T03:02:00;99733.97;;;11.59;86.10
28004;BME280;15330;51.234;6.754;2022-12-29T03:07:36;99733.16;;;11.58;86.28
28004;BME280;15330;51.234;6.754;2022-12-29T03:10:30;99726.31;;;11.56;86.69
28004;BME280;15330;51.234;6.754;2022-12-29T03:16:14;99713.19;;;11.61;86.17
28004;BME280;15330;51.234;6.754;2022-12-29T03:18:50;99734.19;;;11.64;86.46
28004;BME280;15330;51.234;6.754;2022-12-29T03:21:27;99717.94;;;11.65;86.43
28004;BME280;15330;51.234;6.754;2022-12-29T03:24:16;99721.22;;;11.61;86.90
28004;BME280;15330;51.234;6.754;2022-12-29T03:26:43;99720.38;;;11.60;86.81
28004;BME280;15330;51.234;6.754;2022-12-29T03:29:12;99725.56;;;11.62;86.65
28004;BME280;15330;51.234;6.754;2022-12-29T03:31:40;99709.69;;;11.60;86.89
28004;BME280;15330;51.234;6.754;2022-12-29T03:34:08;99716.47;;;11.63;86.66
28004;BME280;15330;51.234;6.754;2022-12-29T03:36:48;99721.81;;;11.63;87.07
28004;BME280;15330;51.234;6.754;2022-12-29T03:39:14;99704.72;;;11.64;86.72
28004;BME280;15330;51.234;6.754;2022-12-29T03:41:41;99719.66;;;11.73;86.24
28004;BME280;15330;51.234;6.754;2022-12-29T03:44:10;99710.34;;;11.69;86.10
28004;BME280;15330;51.234;6.754;2022-12-29T03:46:35;99713.53;;;11.79;85.88
28004;BME280;15330;51.234;6.754;2022-12-29T03:49:01;99697.63;;;11.77;86.13
28004;BME280;15330;51.234;6.754;2022-12-29T03:51:26;99707.34;;;11.79;86.12
28004;BME280;15330;51.234;6.754;2022-12-29T03:53:51;99699.09;;;11.80;85.99
28004;BME280;15330;51.234;6.754;2022-12-29T03:56:17;99693.66;;;11.73;85.93
28004;BME280;15330;51.234;6.754;2022-12-29T03:58:42;99682.78;;;11.75;86.33
28004;BME280;15330;51.234;6.754;2022-12-29T04:01:07;99688.31;;;11.73;86.30
28004;BME280;15330;51.234;6.754;2022-12-29T04:03:33;99676.00;;;11.79;85.84
28004;BME280;15330;51.234;6.754;2022-12-29T04:05:59;99664.84;;;11.75;86.15
28004;BME280;15330;51.234;6.754;2022-12-29T04:08:24;99672.06;;;11.75;86.17
28004;BME280;15330;51.234;6.754;2022-12-29T04:10:49;99664.84;;;11.75;86.50
28004;BME280;15330;51.234;6.754;2022-12-29T04:13:15;99687.28;;;11.74;86.57
28004;BME280;15330;51.234;6.754;2022-12-29T04:15:42;99688.53;;;11.72;86.71
28004;BME280;15330;51.234;6.754;2022-12-29T04:18:08;99691.19;;;11.72;86.42
28004;BME280;15330;51.234;6.754;2022-12-29T04:20:33;99682.59;;;11.76;86.16
28004;BME280;15330;51.234;6.754;2022-12-29T04:23:17;99693.94;;;11.79;85.85
28004;BME280;15330;51.234;6.754;2022-12-29T04:25:45;99714.72;;;11.76;86.08
28004;BME280;15330;51.234;6.754;2022-12-29T04:28:12;99713.59;;;11.92;84.67
28004;BME280;15330;51.234;6.754;2022-12-29T04:30:37;99694.59;;;11.87;84.68
28004;BME280;15330;51.234;6.754;2022-12-29T04:33:02;99696.84;;;11.84;84.72
28004;BME280;15330;51.234;6.754;2022-12-29T04:35:28;99698.09;;;11.88;84.55
28004;BME280;15330;51.234;6.754;2022-12-29T04:37:53;99689.22;;;11.81;84.69
28004;BME280;15330;51.234;6.754;2022-12-29T04:40:18;99698.09;;;11.81;84.71
28004;BME280;15330;51.234;6.754;2022-12-29T04:42:43;99696.63;;;11.85;84.25
28004;BME280;15330;51.234;6.754;2022-12-29T04:45:09;99700.56;;;11.83;83.92
28004;BME280;15330;51.234;6.754;2022-12-29T04:47:35;99704.69;;;11.85;84.06
28004;BME280;15330;51.234;6.754;2022-12-29T04:50:00;99701.41;;;11.83;83.72
28004;BME280;15330;51.234;6.754;2022-12-29T04:52:25;99709.84;;;11.87;83.01
28004;BME280;15330;51.234;6.754;2022-12-29T04:54:51;99703.47;;;11.88;82.93
28004;BME280;15330;51.234;6.754;2022-12-29T04:57:16;99711.50;;;11.88;83.16
28004;BME280;15330;51.234;6.754;2022-12-29T04:59:41;99705.50;;;11.86;83.33
28004;BME280;15330;51.234;6.754;2022-12-29T05:02:07;99701.63;;;11.88;83.33
28004;BME280;15330;51.234;6.754;2022-12-29T05:04:32;99704.47;;;11.87;83.45
28004;BME280;15330;51.234;6.754;2022-12-29T05:06:57;99706.34;;;11.86;83.52
28004;BME280;15330;51.234;6.754;2022-12-29T05:09:23;99708.59;;;11.83;83.78
28004;BME280;15330;51.234;6.754;2022-12-29T05:11:49;99715.59;;;11.84;83.57
28004;BME280;15330;51.234;6.754;2022-12-29T05:14:14;99722.81;;;11.83;83.46
28004;BME280;15330;51.234;6.754;2022-12-29T05:16:40;99730.03;;;11.83;83.53
28004;BME280;15330;51.234;6.754;2022-12-29T05:19:05;99716.00;;;11.81;83.88
28004;BME280;15330;51.234;6.754;2022-12-29T05:21:30;99710.84;;;11.79;84.02
28004;BME280;15330;51.234;6.754;2022-12-29T05:23:56;99725.91;;;11.80;83.82
28004;BME280;15330;51.234;6.754;2022-12-29T05:26:21;99724.63;;;11.76;83.87
28004;BME280;15330;51.234;6.754;2022-12-29T05:28:46;99719.66;;;11.73;83.61
28004;BME280;15330;51.234;6.754;2022-12-29T05:31:12;99727.47;;;11.74;83.81
28004;BME280;15330;51.234;6.754;2022-12-29T05:33:37;99717.16;;;11.71;83.25
28004;BME280;15330;51.234;6.754;2022-12-29T05:36:07;99712.75;;;11.64;83.95
28004;BME280;15330;51.234;6.754;2022-12-29T05:38:33;99716.28;;;11.64;84.05
28004;BME280;15330;51.234;6.754;2022-12-29T05:40:58;99733.78;;;11.60;84.43
28004;BME280;15330;51.234;6.754;2022-12-29T05:43:24;99714.78;;;11.55;84.52
28004;BME280;15330;51.234;6.754;2022-12-29T05:45:49;99713.56;;;11.58;84.62
28004;BME280;15330;51.234;6.754;2022-12-29T05:48:15;99715.06;;;11.67;83.83
28004;BME280;15330;51.234;6.754;2022-12-29T05:50:40;99719.59;;;11.66;83.81
28004;BME280;15330;51.234;6.754;2022-12-29T05:53:05;99715.88;;;11.67;83.45
28004;BME280;15330;51.234;6.754;2022-12-29T05:55:31;99709.97;;;11.72;82.93
28004;BME280;15330;51.234;6.754;2022-12-29T05:57:56;99718.75;;;11.66;82.84
28004;BME280;15330;51.234;6.754;2022-12-29T06:00:22;99722.06;;;11.68;82.85
28004;BME280;15330;51.234;6.754;2022-12-29T06:02:47;99751.34;;;11.69;82.37
28004;BME280;15330;51.234;6.754;2022-12-29T06:05:12;99750.75;;;11.74;82.07
28004;BME280;15330;51.234;6.754;2022-12-29T06:07:38;99753.78;;;11.64;82.47
28004;BME280;15330;51.234;6.754;2022-12-29T06:10:05;99761.78;;;11.58;82.94
28004;BME280;15330;51.234;6.754;2022-12-29T06:12:31;99750.03;;;11.59;82.59
28004;BME280;15330;51.234;6.754;2022-12-29T06:14:56;99752.03;;;11.50;82.74
28004;BME280;15330;51.234;6.754;2022-12-29T06:17:21;99761.28;;;11.48;82.98
28004;BME280;15330;51.234;6.754;2022-12-29T06:19:47;99754.91;;;11.49;82.85
28004;BME280;15330;51.234;6.754;2022-12-29T06:22:12;99743.13;;;11.43;82.74
28004;BME280;15330;51.234;6.754;2022-12-29T06:24:38;99768.50;;;11.47;83.04
28004;BME280;15330;51.234;6.754;2022-12-29T06:27:04;99764.13;;;11.39;83.05
28004;BME280;15330;51.234;6.754;2022-12-29T06:29:29;99774.63;;;11.41;83.08
28004;BME280;15330;51.234;6.754;2022-12-29T06:31:55;99795.41;;;11.39;83.13
28004;BME280;15330;51.234;6.754;2022-12-29T06:34:25;99794.50;;;11.32;83.60
28004;BME280;15330;51.234;6.754;2022-12-29T06:36:51;99774.72;;;11.26;83.32
28004;BME280;15330;51.234;6.754;2022-12-29T06:39:16;99800.69;;;11.32;83.36
28004;BME280;15330;51.234;6.754;2022-12-29T06:41:42;99810.00;;;11.36;83.44
28004;BME280;15330;51.234;6.754;2022-12-29T06:44:07;99802.53;;;11.32;82.73
28004;BME280;15330;51.234;6.754;2022-12-29T06:46:32;99799.06;;;11.31;83.22
28004;BME280;15330;51.234;6.754;2022-12-29T06:48:58;99793.91;;;11.30;82.74
28004;BME280;15330;51.234;6.754;2022-12-29T06:51:23;99792.88;;;11.31;82.56
28004;BME280;15330;51.234;6.754;2022-12-29T06:53:48;99804.84;;;11.35;82.09
28004;BME280;15330;51.234;6.754;2022-12-29T06:56:14;99808.53;;;11.34;81.95
28004;BME280;15330;51.234;6.754;2022-12-29T06:58:39;99810.38;;;11.33;81.76
28004;BME280;15330;51.234;6.754;2022-12-29T07:01:04;99795.16;;;11.34;81.68
28004;BME280;15330;51.234;6.754;2022-12-29T07:03:30;99802.16;;;11.35;81.71
28004;BME280;15330;51.234;6.754;2022-12-29T07:05:55;99813.91;;;11.34;82.05
28004;BME280;15330;51.234;6.754;2022-12-29T07:08:23;99811.88;;;11.36;81.38
28004;BME280;15330;51.234;6.754;2022-12-29T07:10:48;99802.94;;;11.29;81.82
28004;BME280;15330;51.234;6.754;2022-12-29T07:13:14;99816.97;;;11.31;81.18
28004;BME280;15330;51.234;6.754;2022-12-29T07:15:39;99805.81;;;11.27;81.35
28004;BME280;15330;51.234;6.754;2022-12-29T07:18:05;99814.50;;;11.29;80.71
28004;BME280;15330;51.234;6.754;2022-12-29T07:20:30;99817.16;;;11.29;80.71
28004;BME280;15330;51.234;6.754;2022-12-29T07:22:56;99820.41;;;11.25;81.05
28004;BME280;15330;51.234;6.754;2022-12-29T07:25:22;99819.94;;;11.21;81.33
28004;BME280;15330;51.234;6.754;2022-12-29T07:27:47;99817.41;;;11.13;81.46
28004;BME280;15330;51.234;6.754;2022-12-29T07:30:13;99837.06;;;11.20;81.73
28004;BME280;15330;51.234;6.754;2022-12-29T07:32:39;99840.34;;;11.22;80.91
28004;BME280;15330;51.234;6.754;2022-12-29T07:35:05;99839.53;;;11.22;81.24
28004;BME280;15330;51.234;6.754;2022-12-29T07:37:31;99850.63;;;11.19;81.11
28004;BME280;15330;51.234;6.754;2022-12-29T07:39:56;99854.13;;;11.19;80.63
28004;BME280;15330;51.234;6.754;2022-12-29T07:42:22;99861.84;;;11.29;79.21
28004;BME280;15330;51.234;6.754;2022-12-29T07:44:47;99860.38;;;11.26;79.91
28004;BME280;15330;51.234;6.754;2022-12-29T07:47:12;99861.59;;;11.24;79.13
28004;BME280;15330;51.234;6.754;2022-12-29T07:49:38;99862.59;;;11.23;78.65
28004;BME280;15330;51.234;6.754;2022-12-29T07:52:03;99865.88;;;11.18;79.89
28004;BME280;15330;51.234;6.754;2022-12-29T07:54:29;99884.59;;;11.18;79.86
28004;BME280;15330;51.234;6.754;2022-12-29T07:56:54;99875.38;;;11.21;78.66
28004;BME280;15330;51.234;6.754;2022-12-29T07:59:19;99875.38;;;11.21;78.81
28004;BME280;15330;51.234;6.754;2022-12-29T08:01:45;99876.16;;;11.21;78.46
28004;BME280;15330;51.234;6.754;2022-12-29T08:04:10;99869.19;;;11.20;78.77
28004;BME280;15330;51.234;6.754;2022-12-29T08:06:35;99874.53;;;11.20;78.65
28004;BME280;15330;51.234;6.754;2022-12-29T08:09:03;99871.41;;;11.17;78.93
28004;BME280;15330;51.234;6.754;2022-12-29T08:11:28;99873.06;;;11.18;78.95
28004;BME280;15330;51.234;6.754;2022-12-29T08:13:53;99884.41;;;11.20;78.55
28004;BME280;15330;51.234;6.754;2022-12-29T08:16:19;99874.44;;;11.14;78.89
28004;BME280;15330;51.234;6.754;2022-12-29T08:18:44;99889.50;;;11.15;79.03
28004;BME280;15330;51.234;6.754;2022-12-29T08:21:10;99876.94;;;11.15;78.94
28004;BME280;15330;51.234;6.754;2022-12-29T08:23:35;99890.31;;;11.15;79.28
28004;BME280;15330;51.234;6.754;2022-12-29T08:26:03;99890.13;;;11.17;78.86
28004;BME280;15330;51.234;6.754;2022-12-29T08:28:29;99893.00;;;11.15;79.13
28004;BME280;15330;51.234;6.754;2022-12-29T08:30:59;99906.19;;;11.17;78.86
28004;BME280;15330;51.234;6.754;2022-12-29T08:33:25;99903.47;;;11.10;81.10
28004;BME280;15330;51.234;6.754;2022-12-29T08:35:50;99915.38;;;10.93;83.93
28004;BME280;15330;51.234;6.754;2022-12-29T08:38:16;99904.44;;;10.73;85.69
28004;BME280;15330;51.234;6.754;2022-12-29T08:40:41;99912.94;;;10.62;87.47
28004;BME280;15330;51.234;6.754;2022-12-29T08:43:06;99919.22;;;10.69;86.23
28004;BME280;15330;51.234;6.754;2022-12-29T08:45:32;99927.31;;;10.61;86.50
28004;BME280;15330;51.234;6.754;2022-12-29T08:47:57;99910.53;;;10.67;84.59
28004;BME280;15330;51.234;6.754;2022-12-29T08:50:23;99918.81;;;10.72;83.88
28004;BME280;15330;51.234;6.754;2022-12-29T08:52:48;99924.53;;;10.98;84.42
28004;BME280;15330;51.234;6.754;2022-12-29T08:55:13;99927.97;;;11.14;84.18
28004;BME280;15330;51.234;6.754;2022-12-29T08:57:39;99936.94;;;11.21;83.21
28004;BME280;15330;51.234;6.754;2022-12-29T09:00:05;99918.63;;;11.24;82.72
28004;BME280;15330;51.234;6.754;2022-12-29T09:02:31;99922.25;;;11.17;80.49
28004;BME280;15330;51.234;6.754;2022-12-29T09:04:56;99917.72;;;12.24;78.53
28004;BME280;15330;51.234;6.754;2022-12-29T09:07:23;99925.94;;;11.73;78.06
28004;BME280;15330;51.234;6.754;2022-12-29T09:09:48;99928.91;;;11.63;79.49
28004;BME280;15330;51.234;6.754;2022-12-29T09:12:15;99941.38;;;11.50;78.88
28004;BME280;15330;51.234;6.754;2022-12-29T09:14:41;99930.47;;;11.51;79.46
28004;BME280;15330;51.234;6.754;2022-12-29T09:17:08;99941.47;;;11.63;78.78
28004;BME280;15330;51.234;6.754;2022-12-29T09:19:52;99942.59;;;11.32;80.02
28004;BME280;15330;51.234;6.754;2022-12-29T09:22:17;99938.47;;;11.30;79.51
28004;BME280;15330;51.234;6.754;2022-12-29T09:24:42;99942.91;;;11.23;79.07
28004;BME280;15330;51.234;6.754;2022-12-29T09:27:08;99962.41;;;11.31;78.65
28004;BME280;15330;51.234;6.754;2022-12-29T09:29:33;99952.44;;;11.83;77.50
28004;BME280;15330;51.234;6.754;2022-12-29T09:31:58;99963.06;;;11.97;76.18
28004;BME280;15330;51.234;6.754;2022-12-29T09:34:24;99959.88;;;11.87;76.35
28004;BME280;15330;51.234;6.754;2022-12-29T09:36:49;99969.38;;;11.68;77.53
28004;BME280;15330;51.234;6.754;2022-12-29T09:39:15;99955.31;;;11.45;77.50
28004;BME280;15330;51.234;6.754;2022-12-29T09:41:50;99954.06;;;11.41;75.91
28004;BME280;15330;51.234;6.754;2022-12-29T09:44:27;99961.31;;;11.47;76.63
28004;BME280;15330;51.234;6.754;2022-12-29T09:46:57;99956.63;;;11.34;76.91
28004;BME280;15330;51.234;6.754;2022-12-29T09:52:14;99977.53;;;11.24;76.54
28004;BME280;15330;51.234;6.754;2022-12-29T09:54:56;99958.31;;;11.93;74.89
28004;BME280;15330;51.234;6.754;2022-12-29T09:57:34;99961.34;;;12.73;71.09
28004;BME280;15330;51.234;6.754;2022-12-29T10:00:06;99965.69;;;12.12;72.01
28004;BME280;15330;51.234;6.754;2022-12-29T10:02:38;99960.88;;;12.63;69.36
28004;BME280;15330;51.234;6.754;2022-12-29T10:07:55;99957.34;;;15.41;60.77
28004;BME280;15330;51.234;6.754;2022-12-29T10:10:42;99947.94;;;14.28;61.50
28004;BME280;15330;51.234;6.754;2022-12-29T10:16:08;99957.97;;;12.30;68.24
28004;BME280;15330;51.234;6.754;2022-12-29T10:24:04;99961.41;;;11.75;69.62
28004;BME280;15330;51.234;6.754;2022-12-29T10:26:37;99957.41;;;11.86;69.92
28004;BME280;15330;51.234;6.754;2022-12-29T10:29:08;99960.91;;;13.11;65.53
28004;BME280;15330;51.234;6.754;2022-12-29T10:31:41;99961.44;;;12.24;68.07
28004;BME280;15330;51.234;6.754;2022-12-29T10:34:26;99975.81;;;13.68;64.07
28004;BME280;15330;51.234;6.754;2022-12-29T10:37:14;99964.50;;;13.18;64.29
28004;BME280;15330;51.234;6.754;2022-12-29T10:39:51;99963.00;;;15.33;58.15
28004;BME280;15330;51.234;6.754;2022-12-29T10:42:27;99989.91;;;14.36;59.70
28004;BME280;15330;51.234;6.754;2022-12-29T10:44:54;99996.31;;;14.02;61.12
28004;BME280;15330;51.234;6.754;2022-12-29T10:47:24;99991.75;;;13.15;63.69
28004;BME280;15330;51.234;6.754;2022-12-29T10:49:51;99981.38;;;13.59;61.34
28004;BME280;15330;51.234;6.754;2022-12-29T10:52:19;99977.31;;;13.90;61.22
28004;BME280;15330;51.234;6.754;2022-12-29T10:54:51;99985.31;;;15.47;56.84
28004;BME280;15330;51.234;6.754;2022-12-29T10:59:53;99997.56;;;12.84;65.60
28004;BME280;15330;51.234;6.754;2022-12-29T11:05:29;100025.97;;;12.44;66.40
28004;BME280;15330;51.234;6.754;2022-12-29T11:08:04;100023.56;;;12.06;67.95
28004;BME280;15330;51.234;6.754;2022-12-29T11:10:38;100023.28;;;12.44;66.75
28004;BME280;15330;51.234;6.754;2022-12-29T11:13:19;100007.91;;;12.31;67.42
28004;BME280;15330;51.234;6.754;2022-12-29T11:15:50;100032.38;;;12.00;68.08
28004;BME280;15330;51.234;6.754;2022-12-29T11:18:26;100036.25;;;11.76;68.27
28004;BME280;15330;51.234;6.754;2022-12-29T11:20:58;100023.97;;;11.82;68.36
28004;BME280;15330;51.234;6.754;2022-12-29T11:28:43;100033.97;;;11.59;69.58
28004;BME280;15330;51.234;6.754;2022-12-29T11:31:09;100045.94;;;11.63;69.71
28004;BME280;15330;51.234;6.754;2022-12-29T11:33:36;100045.34;;;11.61;69.75
28004;BME280;15330;51.234;6.754;2022-12-29T11:36:07;100034.00;;;11.44;69.38
28004;BME280;15330;51.234;6.754;2022-12-29T11:38:38;100049.34;;;11.35;69.96
28004;BME280;15330;51.234;6.754;2022-12-29T11:41:05;100022.94;;;11.32;70.21
28004;BME280;15330;51.234;6.754;2022-12-29T11:43:41;100043.34;;;11.33;70.00
28004;BME280;15330;51.234;6.754;2022-12-29T11:46:25;100033.84;;;11.31;69.87
28004;BME280;15330;51.234;6.754;2022-12-29T11:48:51;100060.81;;;11.29;69.89
28004;BME280;15330;51.234;6.754;2022-12-29T11:51:25;100040.03;;;11.31;69.66
28004;BME280;15330;51.234;6.754;2022-12-29T11:54:02;100042.44;;;11.26;69.67
28004;BME280;15330;51.234;6.754;2022-12-29T11:56:35;100057.94;;;11.31;70.23
28004;BME280;15330;51.234;6.754;2022-12-29T12:04:38;100064.03;;;11.25;70.70
28004;BME280;15330;51.234;6.754;2022-12-29T12:07:12;100072.72;;;11.27;70.27
28004;BME280;15330;51.234;6.754;2022-12-29T12:09:51;100067.47;;;11.19;70.68
28004;BME280;15330;51.234;6.754;2022-12-29T12:12:28;100060.09;;;11.21;70.21
28004;BME280;15330;51.234;6.754;2022-12-29T12:14:58;100059.59;;;11.17;70.32
28004;BME280;15330;51.234;6.754;2022-12-29T12:17:55;100068.13;;;11.21;70.46
28004;BME280;15330;51.234;6.754;2022-12-29T12:20:54;100080.94;;;11.25;70.80
28004;BME280;15330;51.234;6.754;2022-12-29T12:26:42;100072.63;;;11.20;70.92
28004;BME280;15330;51.234;6.754;2022-12-29T12:29:15;100080.38;;;11.15;70.76
28004;BME280;15330;51.234;6.754;2022-12-29T12:32:05;100097.25;;;11.16;70.81
28004;BME280;15330;51.234;6.754;2022-12-29T12:34:41;100080.38;;;11.15;70.82
28004;BME280;15330;51.234;6.754;2022-12-29T12:38:09;100084.63;;;11.10;71.07
28004;BME280;15330;51.234;6.754;2022-12-29T12:43:31;100088.69;;;11.06;70.71
28004;BME280;15330;51.234;6.754;2022-12-29T12:47:00;100095.03;;;11.04;70.70
28004;BME280;15330;51.234;6.754;2022-12-29T12:55:12;100093.38;;;11.03;71.31
28004;BME280;15330;51.234;6.754;2022-12-29T12:57:49;100098.91;;;11.02;70.81
28004;BME280;15330;51.234;6.754;2022-12-29T13:00:19;100096.72;;;11.06;70.93
28004;BME280;15330;51.234;6.754;2022-12-29T13:03:13;100105.09;;;11.02;70.58
28004;BME280;15330;51.234;6.754;2022-12-29T13:21:08;100117.00;;;10.85;72.70
28004;BME280;15330;51.234;6.754;2022-12-29T13:26:32;100126.13;;;10.91;73.24
28004;BME280;15330;51.234;6.754;2022-12-29T13:34:47;100120.97;;;10.89;74.39
28004;BME280;15330;51.234;6.754;2022-12-29T13:37:20;100129.19;;;10.88;73.56
28004;BME280;15330;51.234;6.754;2022-12-29T13:39:54;100125.28;;;10.90;73.49
28004;BME280;15330;51.234;6.754;2022-12-29T13:42:22;100131.47;;;10.91;72.84
28004;BME280;15330;51.234;6.754;2022-12-29T13:44:54;100124.41;;;10.98;71.93
28004;BME280;15330;51.234;6.754;2022-12-29T13:47:45;100127.50;;;11.01;72.30
28004;BME280;15330;51.234;6.754;2022-12-29T13:50:20;100123.09;;;10.94;71.73
28004;BME280;15330;51.234;6.754;2022-12-29T13:58:51;100129.75;;;10.98;70.73
28004;BME280;15330;51.234;6.754;2022-12-29T14:01:29;100108.03;;;10.93;70.86
28004;BME280;15330;51.234;6.754;2022-12-29T14:03:57;100116.81;;;11.01;70.17
28004;BME280;15330;51.234;6.754;2022-12-29T14:06:30;100129.09;;;10.96;70.75
28004;BME280;15330;51.234;6.754;2022-12-29T14:09:01;100127.97;;;10.90;70.65
28004;BME280;15330;51.234;6.754;2022-12-29T14:11:33;100130.94;;;10.95;71.08
28004;BME280;15330;51.234;6.754;2022-12-29T14:14:25;100136.63;;;10.92;70.77
28004;BME280;15330;51.234;6.754;2022-12-29T14:16:53;100160.44;;;10.87;71.17
28004;BME280;15330;51.234;6.754;2022-12-29T14:19:38;100140.88;;;10.87;71.58
28004;BME280;15330;51.234;6.754;2022-12-29T14:22:06;100146.25;;;10.87;71.63
28004;BME280;15330;51.234;6.754;2022-12-29T14:27:01;100159.50;;;10.80;71.86
28004;BME280;15330;51.234;6.754;2022-12-29T14:29:48;100146.31;;;10.79;71.60
28004;BME280;15330;51.234;6.754;2022-12-29T14:34:45;100164.38;;;10.77;71.93
28004;BME280;15330;51.234;6.754;2022-12-29T14:42:29;100173.44;;;10.76;71.84
28004;BME280;15330;51.234;6.754;2022-12-29T14:47:48;100172.94;;;10.72;72.06
28004;BME280;15330;51.234;6.754;2022-12-29T14:52:49;100169.44;;;10.72;72.00
28004;BME280;15330;51.234;6.754;2022-12-29T14:57:44;100179.38;;;10.63;72.15
28004;BME280;15330;51.234;6.754;2022-12-29T15:00:21;100171.53;;;10.61;72.13
28004;BME280;15330;51.234;6.754;2022-12-29T15:03:02;100170.84;;;10.59;71.98
28004;BME280;15330;51.234;6.754;2022-12-29T15:07:58;100179.03;;;10.66;72.21
28004;BME280;15330;51.234;6.754;2022-12-29T15:10:25;100182.78;;;10.57;72.44
28004;BME280;15330;51.234;6.754;2022-12-29T15:12:54;100177.59;;;10.55;72.64